sensor_id;sensor_type;location;lat;lon;timestamp;P1;durP1;ratioP1;P2;durP2;ratioP2
49840;SDS011;35738;49.890;5.930;2022-12-07T00:01:16;95.37;;;25.63;;
49840;SDS011;35738;49.890;5.930;2022-12-07T00:03:46;87.83;;;24.53;;
49840;SDS011;35738;49.890;5.930;2022-12-07T00:06:15;92.27;;;25.17;;
49840;SDS011;35738;49.890;5.930;2022-12-07T00:08:43;181.97;;;28.37;;
49840;SDS011;35738;49.890;5.930;2022-12-07T00:11:17;91.03;;;26.07;;
49840;SDS011;35738;49.890;5.930;2022-12-07T00:13:46;100.70;;;25.80;;
49840;SDS011;35738;49.890;5.930;2022-12-07T00:16:17;296.30;;;31.93;;
49840;SDS011;35738;49.890;5.930;2022-12-07T00:18:45;104.70;;;25.80;;
49840;SDS011;35738;49.890;5.930;2022-12-07T00:21:13;170.90;;;29.90;;
49840;SDS011;35738;49.890;5.930;2022-12-07T00:23:40;186.67;;;30.07;;
49840;SDS011;35738;49.890;5.930;2022-12-07T00:28:36;98.47;;;26.13;;
49840;SDS011;35738;49.890;5.930;2022-12-07T00:31:04;75.53;;;23.57;;
49840;SDS011;35738;49.890;5.930;2022-12-07T00:33:35;96.80;;;26.90;;
49840;SDS011;35738;49.890;5.930;2022-12-07T00:36:03;90.53;;;26.63;;
49840;SDS011;35738;49.890;5.930;2022-12-07T00:38:33;82.80;;;25.53;;
49840;SDS011;35738;49.890;5.930;2022-12-07T00:41:02;109.90;;;25.43;;
49840;SDS011;35738;49.890;5.930;2022-12-07T00:43:35;91.40;;;26.53;;
49840;SDS011;35738;49.890;5.930;2022-12-07T00:46:02;88.13;;;26.10;;
49840;SDS011;35738;49.890;5.930;2022-12-07T00:48:29;98.97;;;27.33;;
49840;SDS011;35738;49.890;5.930;2022-12-07T00:50:56;174.47;;;30.40;;
49840;SDS011;35738;49.890;5.930;2022-12-07T00:53:22;137.00;;;28.30;;
49840;SDS011;35738;49.890;5.930;2022-12-07T00:55:49;91.73;;;26.10;;
49840;SDS011;35738;49.890;5.930;2022-12-07T00:58:16;130.83;;;27.60;;
49840;SDS011;35738;49.890;5.930;2022-12-07T01:00:43;238.97;;;29.97;;
49840;SDS011;35738;49.890;5.930;2022-12-07T01:03:10;228.20;;;32.07;;
49840;SDS011;35738;49.890;5.930;2022-12-07T01:05:39;194.70;;;31.10;;
49840;SDS011;35738;49.890;5.930;2022-12-07T01:08:08;225.80;;;31.97;;
49840;SDS011;35738;49.890;5.930;2022-12-07T01:10:34;335.93;;;34.93;;
49840;SDS011;35738;49.890;5.930;2022-12-07T01:13:01;200.80;;;30.13;;
49840;SDS011;35738;49.890;5.930;2022-12-07T01:15:28;132.80;;;26.50;;
49840;SDS011;35738;49.890;5.930;2022-12-07T01:17:54;242.90;;;30.60;;
49840;SDS011;35738;49.890;5.930;2022-12-07T01:20:21;74.17;;;24.43;;
49840;SDS011;35738;49.890;5.930;2022-12-07T01:22:48;86.90;;;25.33;;
49840;SDS011;35738;49.890;5.930;2022-12-07T01:25:15;60.83;;;22.70;;
49840;SDS011;35738;49.890;5.930;2022-12-07T01:27:42;61.60;;;22.83;;
49840;SDS011;35738;49.890;5.930;2022-12-07T01:30:09;74.97;;;23.80;;
49840;SDS011;35738;49.890;5.930;2022-12-07T01:32:36;69.93;;;23.20;;
49840;SDS011;35738;49.890;5.930;2022-12-07T01:35:03;69.43;;;24.30;;
49840;SDS011;35738;49.890;5.930;2022-12-07T01:37:34;72.10;;;22.93;;
49840;SDS011;35738;49.890;5.930;2022-12-07T01:40:06;73.93;;;24.30;;
49840;SDS011;35738;49.890;5.930;2022-12-07T01:42:34;93.77;;;25.43;;
49840;SDS011;35738;49.890;5.930;2022-12-07T01:47:50;75.73;;;24.60;;
49840;SDS011;35738;49.890;5.930;2022-12-07T01:50:21;65.73;;;23.17;;
49840;SDS011;35738;49.890;5.930;2022-12-07T01:52:52;87.93;;;23.23;;
49840;SDS011;35738;49.890;5.930;2022-12-07T01:55:21;128.97;;;24.93;;
49840;SDS011;35738;49.890;5.930;2022-12-07T01:57:49;146.20;;;23.93;;
49840;SDS011;35738;49.890;5.930;2022-12-07T02:00:20;60.90;;;21.13;;
49840;SDS011;35738;49.890;5.930;2022-12-07T02:05:23;117.80;;;23.93;;
49840;SDS011;35738;49.890;5.930;2022-12-07T02:07:51;186.83;;;24.57;;
49840;SDS011;35738;49.890;5.930;2022-12-07T02:10:22;305.17;;;30.17;;
49840;SDS011;35738;49.890;5.930;2022-12-07T02:12:56;307.60;;;29.57;;
49840;SDS011;35738;49.890;5.930;2022-12-07T02:15:34;166.07;;;25.53;;
49840;SDS011;35738;49.890;5.930;2022-12-07T02:20:54;165.97;;;25.77;;
49840;SDS011;35738;49.890;5.930;2022-12-07T02:29:32;170.43;;;24.40;;
49840;SDS011;35738;49.890;5.930;2022-12-07T02:32:16;190.23;;;24.67;;
49840;SDS011;35738;49.890;5.930;2022-12-07T02:37:42;84.93;;;21.57;;
49840;SDS011;35738;49.890;5.930;2022-12-07T02:42:52;95.80;;;21.67;;
49840;SDS011;35738;49.890;5.930;2022-12-07T02:45:24;150.37;;;23.90;;
49840;SDS011;35738;49.890;5.930;2022-12-07T02:47:55;390.13;;;31.97;;
49840;SDS011;35738;49.890;5.930;2022-12-07T02:50:24;172.40;;;23.40;;
49840;SDS011;35738;49.890;5.930;2022-12-07T02:52:52;93.50;;;19.60;;
49840;SDS011;35738;49.890;5.930;2022-12-07T02:55:19;310.07;;;28.60;;
49840;SDS011;35738;49.890;5.930;2022-12-07T03:00:26;308.53;;;25.93;;
49840;SDS011;35738;49.890;5.930;2022-12-07T03:08:49;495.47;;;33.37;;
49840;SDS011;35738;49.890;5.930;2022-12-07T03:11:29;343.33;;;29.07;;
49840;SDS011;35738;49.890;5.930;2022-12-07T03:14:44;483.87;;;34.13;;
49840;SDS011;35738;49.890;5.930;2022-12-07T03:16:57;255.47;;;25.17;;
49840;SDS011;35738;49.890;5.930;2022-12-07T03:19:31;154.17;;;21.43;;
49840;SDS011;35738;49.890;5.930;2022-12-07T03:22:01;207.00;;;23.53;;
49840;SDS011;35738;49.890;5.930;2022-12-07T03:24:49;109.13;;;20.83;;
49840;SDS011;35738;49.890;5.930;2022-12-07T03:27:22;217.83;;;22.90;;
49840;SDS011;35738;49.890;5.930;2022-12-07T03:32:28;172.60;;;23.47;;
49840;SDS011;35738;49.890;5.930;2022-12-07T03:40:32;243.57;;;25.43;;
49840;SDS011;35738;49.890;5.930;2022-12-07T03:43:03;105.30;;;21.23;;
49840;SDS011;35738;49.890;5.930;2022-12-07T03:45:41;211.53;;;23.53;;
49840;SDS011;35738;49.890;5.930;2022-12-07T03:48:19;290.63;;;26.30;;
49840;SDS011;35738;49.890;5.930;2022-12-07T03:53:53;125.40;;;22.13;;
49840;SDS011;35738;49.890;5.930;2022-12-07T03:56:26;223.57;;;23.37;;
49840;SDS011;35738;49.890;5.930;2022-12-07T03:58:55;226.40;;;24.17;;
49840;SDS011;35738;49.890;5.930;2022-12-07T04:01:22;289.13;;;27.40;;
49840;SDS011;35738;49.890;5.930;2022-12-07T04:03:49;210.67;;;24.97;;
49840;SDS011;35738;49.890;5.930;2022-12-07T04:06:16;315.27;;;28.30;;
49840;SDS011;35738;49.890;5.930;2022-12-07T04:08:43;254.27;;;25.03;;
49840;SDS011;35738;49.890;5.930;2022-12-07T04:11:10;211.60;;;23.67;;
49840;SDS011;35738;49.890;5.930;2022-12-07T04:13:36;125.90;;;19.70;;
49840;SDS011;35738;49.890;5.930;2022-12-07T04:16:23;109.07;;;18.63;;
49840;SDS011;35738;49.890;5.930;2022-12-07T04:18:49;71.87;;;17.47;;
49840;SDS011;35738;49.890;5.930;2022-12-07T04:21:16;294.17;;;24.27;;
49840;SDS011;35738;49.890;5.930;2022-12-07T04:23:43;174.93;;;22.83;;
49840;SDS011;35738;49.890;5.930;2022-12-07T04:26:09;484.27;;;33.20;;
49840;SDS011;35738;49.890;5.930;2022-12-07T04:28:36;625.10;;;37.53;;
49840;SDS011;35738;49.890;5.930;2022-12-07T04:31:02;165.97;;;22.50;;
49840;SDS011;35738;49.890;5.930;2022-12-07T04:33:29;454.87;;;31.50;;
49840;SDS011;35738;49.890;5.930;2022-12-07T04:35:55;363.57;;;28.90;;
49840;SDS011;35738;49.890;5.930;2022-12-07T04:38:22;549.67;;;33.40;;
49840;SDS011;35738;49.890;5.930;2022-12-07T04:40:49;501.87;;;33.53;;
49840;SDS011;35738;49.890;5.930;2022-12-07T04:43:15;242.57;;;30.77;;
49840;SDS011;35738;49.890;5.930;2022-12-07T04:45:48;360.00;;;49.17;;
49840;SDS011;35738;49.890;5.930;2022-12-07T04:48:15;295.33;;;27.40;;
49840;SDS011;35738;49.890;5.930;2022-12-07T04:50:41;241.37;;;31.23;;
49840;SDS011;35738;49.890;5.930;2022-12-07T04:53:11;216.90;;;27.60;;
49840;SDS011;35738;49.890;5.930;2022-12-07T04:55:38;269.23;;;25.00;;
49840;SDS011;35738;49.890;5.930;2022-12-07T04:58:04;299.73;;;27.40;;
49840;SDS011;35738;49.890;5.930;2022-12-07T05:00:31;346.70;;;28.43;;
49840;SDS011;35738;49.890;5.930;2022-12-07T05:02:58;300.00;;;26.73;;
49840;SDS011;35738;49.890;5.930;2022-12-07T05:05:24;466.03;;;31.00;;
49840;SDS011;35738;49.890;5.930;2022-12-07T05:07:51;512.50;;;34.40;;
49840;SDS011;35738;49.890;5.930;2022-12-07T05:10:18;501.47;;;34.30;;
49840;SDS011;35738;49.890;5.930;2022-12-07T05:12:45;529.67;;;33.50;;
49840;SDS011;35738;49.890;5.930;2022-12-07T05:15:12;737.83;;;45.53;;
49840;SDS011;35738;49.890;5.930;2022-12-07T05:17:39;729.03;;;40.50;;
49840;SDS011;35738;49.890;5.930;2022-12-07T05:20:06;710.47;;;40.90;;
49840;SDS011;35738;49.890;5.930;2022-12-07T05:22:34;718.97;;;39.47;;
49840;SDS011;35738;49.890;5.930;2022-12-07T05:25:00;633.57;;;36.67;;
49840;SDS011;35738;49.890;5.930;2022-12-07T05:27:27;458.33;;;30.60;;
49840;SDS011;35738;49.890;5.930;2022-12-07T05:29:54;310.60;;;26.03;;
49840;SDS011;35738;49.890;5.930;2022-12-07T05:32:20;205.70;;;22.53;;
49840;SDS011;35738;49.890;5.930;2022-12-07T05:34:47;98.67;;;19.27;;
49840;SDS011;35738;49.890;5.930;2022-12-07T05:37:14;56.07;;;16.57;;
49840;SDS011;35738;49.890;5.930;2022-12-07T05:39:41;239.70;;;22.70;;
49840;SDS011;35738;49.890;5.930;2022-12-07T05:42:10;57.30;;;16.03;;
49840;SDS011;35738;49.890;5.930;2022-12-07T05:44:40;101.37;;;18.17;;
49840;SDS011;35738;49.890;5.930;2022-12-07T05:47:09;52.67;;;15.17;;
49840;SDS011;35738;49.890;5.930;2022-12-07T05:49:36;49.67;;;15.93;;
49840;SDS011;35738;49.890;5.930;2022-12-07T05:52:04;42.13;;;14.57;;
49840;SDS011;35738;49.890;5.930;2022-12-07T05:54:31;37.73;;;14.60;;
49840;SDS011;35738;49.890;5.930;2022-12-07T05:56:57;31.27;;;11.77;;
49840;SDS011;35738;49.890;5.930;2022-12-07T05:59:24;29.57;;;12.10;;
49840;SDS011;35738;49.890;5.930;2022-12-07T06:02:00;30.93;;;11.67;;
49840;SDS011;35738;49.890;5.930;2022-12-07T06:04:34;25.33;;;10.80;;
49840;SDS011;35738;49.890;5.930;2022-12-07T06:07:03;27.17;;;11.47;;
49840;SDS011;35738;49.890;5.930;2022-12-07T06:09:30;27.33;;;10.53;;
49840;SDS011;35738;49.890;5.930;2022-12-07T06:11:58;23.63;;;11.03;;
49840;SDS011;35738;49.890;5.930;2022-12-07T06:14:43;23.37;;;11.40;;
49840;SDS011;35738;49.890;5.930;2022-12-07T06:17:10;23.27;;;11.50;;
49840;SDS011;35738;49.890;5.930;2022-12-07T06:19:38;28.90;;;11.30;;
49840;SDS011;35738;49.890;5.930;2022-12-07T06:22:05;27.27;;;12.57;;
49840;SDS011;35738;49.890;5.930;2022-12-07T06:24:33;27.87;;;12.50;;
49840;SDS011;35738;49.890;5.930;2022-12-07T06:27:00;30.77;;;12.27;;
49840;SDS011;35738;49.890;5.930;2022-12-07T06:29:27;35.63;;;13.23;;
49840;SDS011;35738;49.890;5.930;2022-12-07T06:31:53;30.30;;;12.90;;
49840;SDS011;35738;49.890;5.930;2022-12-07T06:34:21;32.47;;;13.27;;
49840;SDS011;35738;49.890;5.930;2022-12-07T06:36:51;35.37;;;13.93;;
49840;SDS011;35738;49.890;5.930;2022-12-07T06:39:20;32.90;;;13.07;;
49840;SDS011;35738;49.890;5.930;2022-12-07T06:41:49;37.30;;;13.73;;
49840;SDS011;35738;49.890;5.930;2022-12-07T06:44:16;40.77;;;14.90;;
49840;SDS011;35738;49.890;5.930;2022-12-07T06:46:42;40.20;;;15.63;;
49840;SDS011;35738;49.890;5.930;2022-12-07T06:49:09;41.00;;;15.00;;
49840;SDS011;35738;49.890;5.930;2022-12-07T06:51:35;41.33;;;14.67;;
49840;SDS011;35738;49.890;5.930;2022-12-07T06:54:03;41.53;;;15.03;;
49840;SDS011;35738;49.890;5.930;2022-12-07T06:56:30;37.43;;;14.67;;
49840;SDS011;35738;49.890;5.930;2022-12-07T06:58:56;39.80;;;14.67;;
49840;SDS011;35738;49.890;5.930;2022-12-07T07:01:23;38.27;;;14.27;;
49840;SDS011;35738;49.890;5.930;2022-12-07T07:03:50;39.33;;;14.67;;
49840;SDS011;35738;49.890;5.930;2022-12-07T07:06:16;37.50;;;14.43;;
49840;SDS011;35738;49.890;5.930;2022-12-07T07:08:43;38.80;;;14.43;;
49840;SDS011;35738;49.890;5.930;2022-12-07T07:11:10;36.73;;;14.50;;
49840;SDS011;35738;49.890;5.930;2022-12-07T07:13:37;32.57;;;13.60;;
49840;SDS011;35738;49.890;5.930;2022-12-07T07:16:04;36.80;;;13.70;;
49840;SDS011;35738;49.890;5.930;2022-12-07T07:18:31;34.77;;;14.20;;
49840;SDS011;35738;49.890;5.930;2022-12-07T07:20:58;34.23;;;13.37;;
49840;SDS011;35738;49.890;5.930;2022-12-07T07:23:25;42.87;;;17.23;;
49840;SDS011;35738;49.890;5.930;2022-12-07T07:25:51;38.97;;;15.93;;
49840;SDS011;35738;49.890;5.930;2022-12-07T07:28:18;40.90;;;15.43;;
49840;SDS011;35738;49.890;5.930;2022-12-07T07:30:45;43.10;;;16.00;;
49840;SDS011;35738;49.890;5.930;2022-12-07T07:33:12;43.13;;;15.73;;
49840;SDS011;35738;49.890;5.930;2022-12-07T07:35:39;34.27;;;14.30;;
49840;SDS011;35738;49.890;5.930;2022-12-07T07:38:06;40.67;;;15.17;;
49840;SDS011;35738;49.890;5.930;2022-12-07T07:40:33;34.17;;;14.47;;
49840;SDS011;35738;49.890;5.930;2022-12-07T07:42:59;39.87;;;15.57;;
49840;SDS011;35738;49.890;5.930;2022-12-07T07:45:26;42.77;;;18.93;;
49840;SDS011;35738;49.890;5.930;2022-12-07T07:47:53;43.80;;;15.53;;
49840;SDS011;35738;49.890;5.930;2022-12-07T07:50:20;34.00;;;13.53;;
49840;SDS011;35738;49.890;5.930;2022-12-07T07:52:48;29.67;;;12.57;;
49840;SDS011;35738;49.890;5.930;2022-12-07T07:55:15;33.90;;;13.20;;
49840;SDS011;35738;49.890;5.930;2022-12-07T07:57:44;29.73;;;12.57;;
49840;SDS011;35738;49.890;5.930;2022-12-07T08:00:19;31.13;;;12.57;;
49840;SDS011;35738;49.890;5.930;2022-12-07T08:02:46;32.50;;;12.93;;
49840;SDS011;35738;49.890;5.930;2022-12-07T08:05:13;31.87;;;13.03;;
49840;SDS011;35738;49.890;5.930;2022-12-07T08:07:40;33.10;;;13.00;;
49840;SDS011;35738;49.890;5.930;2022-12-07T08:10:07;33.13;;;12.90;;
49840;SDS011;35738;49.890;5.930;2022-12-07T08:12:40;31.67;;;12.90;;
49840;SDS011;35738;49.890;5.930;2022-12-07T08:15:27;30.90;;;13.17;;
49840;SDS011;35738;49.890;5.930;2022-12-07T08:17:55;29.50;;;11.87;;
49840;SDS011;35738;49.890;5.930;2022-12-07T08:20:22;32.80;;;12.83;;
49840;SDS011;35738;49.890;5.930;2022-12-07T08:22:49;30.30;;;11.90;;
49840;SDS011;35738;49.890;5.930;2022-12-07T08:25:15;30.00;;;12.23;;
49840;SDS011;35738;49.890;5.930;2022-12-07T08:27:42;32.73;;;12.43;;
49840;SDS011;35738;49.890;5.930;2022-12-07T08:30:09;30.73;;;12.10;;
49840;SDS011;35738;49.890;5.930;2022-12-07T08:32:36;31.90;;;12.73;;
49840;SDS011;35738;49.890;5.930;2022-12-07T08:35:02;31.70;;;11.90;;
49840;SDS011;35738;49.890;5.930;2022-12-07T08:37:29;31.07;;;12.30;;
49840;SDS011;35738;49.890;5.930;2022-12-07T08:39:57;29.30;;;11.47;;
49840;SDS011;35738;49.890;5.930;2022-12-07T08:42:23;29.67;;;12.50;;
49840;SDS011;35738;49.890;5.930;2022-12-07T08:44:56;33.47;;;12.43;;
49840;SDS011;35738;49.890;5.930;2022-12-07T08:47:23;33.07;;;12.23;;
49840;SDS011;35738;49.890;5.930;2022-12-07T08:49:51;29.70;;;11.60;;
49840;SDS011;35738;49.890;5.930;2022-12-07T08:52:19;25.73;;;11.00;;
49840;SDS011;35738;49.890;5.930;2022-12-07T08:54:46;26.43;;;11.60;;
49840;SDS011;35738;49.890;5.930;2022-12-07T08:57:13;26.93;;;11.20;;
49840;SDS011;35738;49.890;5.930;2022-12-07T08:59:40;29.57;;;10.67;;
49840;SDS011;35738;49.890;5.930;2022-12-07T09:02:06;31.20;;;11.13;;
49840;SDS011;35738;49.890;5.930;2022-12-07T09:04:33;26.57;;;10.67;;
49840;SDS011;35738;49.890;5.930;2022-12-07T09:07:00;29.23;;;11.57;;
49840;SDS011;35738;49.890;5.930;2022-12-07T09:09:27;29.47;;;11.50;;
49840;SDS011;35738;49.890;5.930;2022-12-07T09:11:53;24.50;;;10.57;;
49840;SDS011;35738;49.890;5.930;2022-12-07T09:14:20;25.33;;;11.33;;
49840;SDS011;35738;49.890;5.930;2022-12-07T09:16:47;30.40;;;11.50;;
49840;SDS011;35738;49.890;5.930;2022-12-07T09:19:13;26.83;;;11.30;;
49840;SDS011;35738;49.890;5.930;2022-12-07T09:21:40;26.47;;;11.30;;
49840;SDS011;35738;49.890;5.930;2022-12-07T09:24:07;29.47;;;11.87;;
49840;SDS011;35738;49.890;5.930;2022-12-07T09:26:35;22.80;;;10.33;;
49840;SDS011;35738;49.890;5.930;2022-12-07T09:29:02;24.13;;;10.97;;
49840;SDS011;35738;49.890;5.930;2022-12-07T09:31:29;28.93;;;11.90;;
49840;SDS011;35738;49.890;5.930;2022-12-07T09:33:56;27.10;;;10.80;;
49840;SDS011;35738;49.890;5.930;2022-12-07T09:36:26;28.13;;;11.53;;
49840;SDS011;35738;49.890;5.930;2022-12-07T09:38:53;25.03;;;10.47;;
49840;SDS011;35738;49.890;5.930;2022-12-07T09:41:20;27.77;;;10.53;;
49840;SDS011;35738;49.890;5.930;2022-12-07T09:43:48;22.30;;;9.73;;
49840;SDS011;35738;49.890;5.930;2022-12-07T09:46:18;27.17;;;10.20;;
49840;SDS011;35738;49.890;5.930;2022-12-07T09:48:46;21.00;;;9.40;;
49840;SDS011;35738;49.890;5.930;2022-12-07T09:53:49;20.17;;;9.77;;
49840;SDS011;35738;49.890;5.930;2022-12-07T09:56:18;19.40;;;9.47;;
49840;SDS011;35738;49.890;5.930;2022-12-07T09:58:46;21.60;;;9.73;;
49840;SDS011;35738;49.890;5.930;2022-12-07T10:03:55;20.67;;;9.90;;
49840;SDS011;35738;49.890;5.930;2022-12-07T10:06:27;14.10;;;8.13;;
49840;SDS011;35738;49.890;5.930;2022-12-07T10:08:53;15.10;;;8.63;;
49840;SDS011;35738;49.890;5.930;2022-12-07T10:11:20;14.90;;;8.67;;
49840;SDS011;35738;49.890;5.930;2022-12-07T10:13:48;19.30;;;8.87;;
49840;SDS011;35738;49.890;5.930;2022-12-07T10:16:39;12.17;;;7.20;;
49840;SDS011;35738;49.890;5.930;2022-12-07T10:22:10;12.37;;;7.17;;
49840;SDS011;35738;49.890;5.930;2022-12-07T10:24:42;12.27;;;7.37;;
49840;SDS011;35738;49.890;5.930;2022-12-07T10:30:07;19.10;;;7.50;;
49840;SDS011;35738;49.890;5.930;2022-12-07T10:32:35;11.90;;;6.57;;
49840;SDS011;35738;49.890;5.930;2022-12-07T10:37:50;12.00;;;6.53;;
49840;SDS011;35738;49.890;5.930;2022-12-07T10:40:36;9.80;;;6.27;;
49840;SDS011;35738;49.890;5.930;2022-12-07T10:43:07;10.57;;;5.83;;
49840;SDS011;35738;49.890;5.930;2022-12-07T10:59:43;9.83;;;6.07;;
49840;SDS011;35738;49.890;5.930;2022-12-07T11:04:55;7.90;;;5.50;;
49840;SDS011;35738;49.890;5.930;2022-12-07T11:07:51;8.40;;;5.53;;
49840;SDS011;35738;49.890;5.930;2022-12-07T11:11:04;9.30;;;5.43;;
49840;SDS011;35738;49.890;5.930;2022-12-07T11:16:11;13.53;;;8.70;;
49840;SDS011;35738;49.890;5.930;2022-12-07T11:24:18;8.70;;;6.10;;
49840;SDS011;35738;49.890;5.930;2022-12-07T11:26:58;10.57;;;7.60;;
49840;SDS011;35738;49.890;5.930;2022-12-07T11:35:05;8.70;;;5.43;;
49840;SDS011;35738;49.890;5.930;2022-12-07T11:37:35;9.53;;;6.00;;
49840;SDS011;35738;49.890;5.930;2022-12-07T11:40:16;8.93;;;5.17;;
49840;SDS011;35738;49.890;5.930;2022-12-07T11:45:34;7.77;;;5.07;;
49840;SDS011;35738;49.890;5.930;2022-12-07T11:50:55;6.37;;;4.00;;
49840;SDS011;35738;49.890;5.930;2022-12-07T11:53:29;5.07;;;4.00;;
49840;SDS011;35738;49.890;5.930;2022-12-07T11:56:13;7.23;;;4.23;;
49840;SDS011;35738;49.890;5.930;2022-12-07T12:04:16;6.53;;;3.60;;
49840;SDS011;35738;49.890;5.930;2022-12-07T12:06:53;4.80;;;3.63;;
49840;SDS011;35738;49.890;5.930;2022-12-07T12:09:23;5.20;;;3.03;;
49840;SDS011;35738;49.890;5.930;2022-12-07T12:21:30;5.83;;;3.47;;
49840;SDS011;35738;49.890;5.930;2022-12-07T12:23:59;7.87;;;3.27;;
49840;SDS011;35738;49.890;5.930;2022-12-07T12:26:32;12.93;;;5.70;;
49840;SDS011;35738;49.890;5.930;2022-12-07T12:29:05;8.60;;;5.77;;
49840;SDS011;35738;49.890;5.930;2022-12-07T12:31:46;6.47;;;3.53;;
49840;SDS011;35738;49.890;5.930;2022-12-07T12:42:52;6.23;;;3.80;;
49840;SDS011;35738;49.890;5.930;2022-12-07T12:45:25;11.00;;;5.13;;
49840;SDS011;35738;49.890;5.930;2022-12-07T13:00:49;13.60;;;5.23;;
49840;SDS011;35738;49.890;5.930;2022-12-07T13:03:57;9.57;;;4.67;;
49840;SDS011;35738;49.890;5.930;2022-12-07T13:08:51;10.03;;;4.70;;
49840;SDS011;35738;49.890;5.930;2022-12-07T13:11:33;8.07;;;4.07;;
49840;SDS011;35738;49.890;5.930;2022-12-07T13:17:09;8.47;;;4.30;;
49840;SDS011;35738;49.890;5.930;2022-12-07T13:24:59;6.70;;;4.60;;
49840;SDS011;35738;49.890;5.930;2022-12-07T13:27:30;11.53;;;4.63;;
49840;SDS011;35738;49.890;5.930;2022-12-07T13:29:56;11.30;;;5.10;;
49840;SDS011;35738;49.890;5.930;2022-12-07T13:32:25;12.93;;;4.83;;
49840;SDS011;35738;49.890;5.930;2022-12-07T13:34:53;8.33;;;4.83;;
49840;SDS011;35738;49.890;5.930;2022-12-07T13:37:26;10.83;;;5.23;;
49840;SDS011;35738;49.890;5.930;2022-12-07T13:40:16;15.03;;;6.67;;
49840;SDS011;35738;49.890;5.930;2022-12-07T13:42:45;50.27;;;18.97;;
49840;SDS011;35738;49.890;5.930;2022-12-07T13:47:49;51.43;;;23.80;;
49840;SDS011;35738;49.890;5.930;2022-12-07T13:50:27;15.37;;;8.00;;
49840;SDS011;35738;49.890;5.930;2022-12-07T13:52:56;15.70;;;6.83;;
49840;SDS011;35738;49.890;5.930;2022-12-07T13:55:24;15.23;;;7.10;;
49840;SDS011;35738;49.890;5.930;2022-12-07T13:57:52;10.80;;;6.00;;
49840;SDS011;35738;49.890;5.930;2022-12-07T14:00:27;11.00;;;6.10;;
49840;SDS011;35738;49.890;5.930;2022-12-07T14:02:57;9.17;;;5.40;;
49840;SDS011;35738;49.890;5.930;2022-12-07T14:05:29;14.00;;;5.23;;
49840;SDS011;35738;49.890;5.930;2022-12-07T14:08:00;12.70;;;5.20;;
49840;SDS011;35738;49.890;5.930;2022-12-07T14:15:49;13.33;;;5.10;;
49840;SDS011;35738;49.890;5.930;2022-12-07T14:23:40;12.27;;;5.63;;
49840;SDS011;35738;49.890;5.930;2022-12-07T14:28:41;11.13;;;5.87;;
49840;SDS011;35738;49.890;5.930;2022-12-07T14:31:10;10.93;;;5.67;;
49840;SDS011;35738;49.890;5.930;2022-12-07T14:33:58;12.17;;;6.03;;
49840;SDS011;35738;49.890;5.930;2022-12-07T14:36:25;10.90;;;5.73;;
49840;SDS011;35738;49.890;5.930;2022-12-07T14:38:52;15.10;;;7.63;;
49840;SDS011;35738;49.890;5.930;2022-12-07T14:41:22;28.27;;;12.73;;
49840;SDS011;35738;49.890;5.930;2022-12-07T14:44:09;13.50;;;6.60;;
49840;SDS011;35738;49.890;5.930;2022-12-07T14:46:57;12.13;;;6.67;;
49840;SDS011;35738;49.890;5.930;2022-12-07T14:49:44;12.17;;;6.87;;
49840;SDS011;35738;49.890;5.930;2022-12-07T14:52:13;11.43;;;6.10;;
49840;SDS011;35738;49.890;5.930;2022-12-07T14:55:03;16.87;;;8.17;;
49840;SDS011;35738;49.890;5.930;2022-12-07T14:57:31;16.23;;;8.13;;
49840;SDS011;35738;49.890;5.930;2022-12-07T14:59:57;14.43;;;8.20;;
49840;SDS011;35738;49.890;5.930;2022-12-07T15:02:26;18.47;;;10.07;;
49840;SDS011;35738;49.890;5.930;2022-12-07T15:04:53;17.63;;;8.83;;
49840;SDS011;35738;49.890;5.930;2022-12-07T15:07:24;23.33;;;13.03;;
49840;SDS011;35738;49.890;5.930;2022-12-07T15:09:53;25.90;;;12.93;;
49840;SDS011;35738;49.890;5.930;2022-12-07T15:12:21;23.60;;;10.83;;
49840;SDS011;35738;49.890;5.930;2022-12-07T15:14:47;14.13;;;7.83;;
49840;SDS011;35738;49.890;5.930;2022-12-07T15:17:14;14.23;;;7.63;;
49840;SDS011;35738;49.890;5.930;2022-12-07T15:19:56;31.90;;;13.97;;
49840;SDS011;35738;49.890;5.930;2022-12-07T15:22:23;24.27;;;12.60;;
49840;SDS011;35738;49.890;5.930;2022-12-07T15:24:49;26.57;;;14.00;;
49840;SDS011;35738;49.890;5.930;2022-12-07T15:27:16;20.27;;;10.03;;
49840;SDS011;35738;49.890;5.930;2022-12-07T15:29:43;23.00;;;12.53;;
49840;SDS011;35738;49.890;5.930;2022-12-07T15:32:09;20.97;;;9.07;;
49840;SDS011;35738;49.890;5.930;2022-12-07T15:34:36;29.70;;;13.77;;
49840;SDS011;35738;49.890;5.930;2022-12-07T15:37:06;19.07;;;9.33;;
49840;SDS011;35738;49.890;5.930;2022-12-07T15:39:33;16.80;;;8.10;;
49840;SDS011;35738;49.890;5.930;2022-12-07T15:42:02;15.67;;;9.40;;
49840;SDS011;35738;49.890;5.930;2022-12-07T15:44:30;15.43;;;7.70;;
49840;SDS011;35738;49.890;5.930;2022-12-07T15:47:15;27.03;;;13.00;;
49840;SDS011;35738;49.890;5.930;2022-12-07T15:49:42;14.87;;;7.90;;
49840;SDS011;35738;49.890;5.930;2022-12-07T15:52:09;16.97;;;8.00;;
49840;SDS011;35738;49.890;5.930;2022-12-07T15:54:36;18.40;;;7.23;;
49840;SDS011;35738;49.890;5.930;2022-12-07T15:57:02;14.37;;;7.77;;
49840;SDS011;35738;49.890;5.930;2022-12-07T15:59:29;15.33;;;7.10;;
49840;SDS011;35738;49.890;5.930;2022-12-07T16:01:56;15.37;;;7.33;;
49840;SDS011;35738;49.890;5.930;2022-12-07T16:04:23;15.53;;;7.73;;
49840;SDS011;35738;49.890;5.930;2022-12-07T16:06:50;15.70;;;7.57;;
49840;SDS011;35738;49.890;5.930;2022-12-07T16:09:17;12.13;;;7.33;;
49840;SDS011;35738;49.890;5.930;2022-12-07T16:11:44;14.07;;;7.43;;
49840;SDS011;35738;49.890;5.930;2022-12-07T16:14:11;15.03;;;6.77;;
49840;SDS011;35738;49.890;5.930;2022-12-07T16:16:38;14.63;;;7.57;;
49840;SDS011;35738;49.890;5.930;2022-12-07T16:19:06;15.63;;;7.37;;
49840;SDS011;35738;49.890;5.930;2022-12-07T16:21:34;20.73;;;7.90;;
49840;SDS011;35738;49.890;5.930;2022-12-07T16:24:01;18.97;;;8.17;;
49840;SDS011;35738;49.890;5.930;2022-12-07T16:26:29;18.50;;;8.73;;
49840;SDS011;35738;49.890;5.930;2022-12-07T16:28:55;21.67;;;8.83;;
49840;SDS011;35738;49.890;5.930;2022-12-07T16:31:23;20.10;;;8.30;;
49840;SDS011;35738;49.890;5.930;2022-12-07T16:33:55;18.43;;;8.30;;
49840;SDS011;35738;49.890;5.930;2022-12-07T16:36:23;14.73;;;7.67;;
49840;SDS011;35738;49.890;5.930;2022-12-07T16:39:11;19.40;;;7.97;;
49840;SDS011;35738;49.890;5.930;2022-12-07T16:41:38;15.17;;;7.53;;
49840;SDS011;35738;49.890;5.930;2022-12-07T16:44:06;15.80;;;8.20;;
49840;SDS011;35738;49.890;5.930;2022-12-07T16:46:34;17.27;;;7.50;;
49840;SDS011;35738;49.890;5.930;2022-12-07T16:49:02;13.77;;;6.40;;
49840;SDS011;35738;49.890;5.930;2022-12-07T16:51:29;16.07;;;7.00;;
49840;SDS011;35738;49.890;5.930;2022-12-07T16:53:56;42.47;;;20.90;;
49840;SDS011;35738;49.890;5.930;2022-12-07T16:56:23;14.87;;;7.07;;
49840;SDS011;35738;49.890;5.930;2022-12-07T16:58:50;13.57;;;7.30;;
49840;SDS011;35738;49.890;5.930;2022-12-07T17:01:18;18.60;;;7.30;;
49840;SDS011;35738;49.890;5.930;2022-12-07T17:03:46;16.87;;;7.97;;
49840;SDS011;35738;49.890;5.930;2022-12-07T17:06:14;18.10;;;6.90;;
49840;SDS011;35738;49.890;5.930;2022-12-07T17:08:44;15.90;;;7.10;;
49840;SDS011;35738;49.890;5.930;2022-12-07T17:11:12;14.80;;;6.90;;
49840;SDS011;35738;49.890;5.930;2022-12-07T17:13:41;15.00;;;7.03;;